createdAt,value
2022-08-26T00:01:42.153Z,23.47
2022-08-26T00:04:12.268Z,23.74
2022-08-26T00:06:39.083Z,23.54
2022-08-26T00:09:16.376Z,23.44
2022-08-26T00:11:47.195Z,23.40
2022-08-26T00:14:16.488Z,23.50
2022-08-26T00:16:47.151Z,23.57
2022-08-26T00:19:17.848Z,23.76
2022-08-26T00:21:45.732Z,23.51
2022-08-26T00:24:13.232Z,23.65
2022-08-26T00:26:41.384Z,23.40
2022-08-26T00:29:08.521Z,23.27
2022-08-26T00:31:36.419Z,23.03
2022-08-26T00:34:04.331Z,22.78
2022-08-26T00:36:31.878Z,22.71
2022-08-26T00:38:58.742Z,22.69
2022-08-26T00:41:25.317Z,22.64
2022-08-26T00:43:52.616Z,22.81
2022-08-26T00:46:28.735Z,22.95
2022-08-26T00:49:05.281Z,22.96
2022-08-26T00:51:46.022Z,22.92
2022-08-26T00:54:13.191Z,22.73
2022-08-26T00:57:00.283Z,22.75
2022-08-26T00:59:29.093Z,22.88
2022-08-26T01:02:00.552Z,23.01
2022-08-26T01:04:31.509Z,22.95
2022-08-26T01:06:59.174Z,23.17
2022-08-26T01:09:26.984Z,22.81
2022-08-26T01:11:57.490Z,22.56
2022-08-26T01:14:28.584Z,22.62
2022-08-26T01:16:55.032Z,22.55
2022-08-26T01:19:32.538Z,22.94
2022-08-26T01:22:05.618Z,22.56
2022-08-26T01:24:32.522Z,22.51
2022-08-26T01:27:05.148Z,22.42
2022-08-26T01:29:33.999Z,22.65
2022-08-26T01:32:03.323Z,22.32
2022-08-26T01:34:35.999Z,22.72
2022-08-26T01:37:15.495Z,22.89
2022-08-26T01:39:44.997Z,22.85
2022-08-26T01:42:14.625Z,22.59
2022-08-26T01:45:14.298Z,22.27
2022-08-26T01:47:42.483Z,22.01
2022-08-26T01:50:27.525Z,21.68
2022-08-26T01:52:57.217Z,21.67
2022-08-26T01:55:32.861Z,21.89
2022-08-26T01:58:04.654Z,22.30
2022-08-26T02:00:32.689Z,22.31
2022-08-26T02:03:17.968Z,22.51
2022-08-26T02:05:53.331Z,22.62
2022-08-26T02:08:28.627Z,22.53
2022-08-26T02:10:55.466Z,22.40
2022-08-26T02:13:26.639Z,22.21
2022-08-26T02:15:55.333Z,21.94
2022-08-26T02:18:22.865Z,21.69
2022-08-26T02:20:51.530Z,21.26
2022-08-26T02:23:18.553Z,20.74
2022-08-26T02:26:07.411Z,20.34
2022-08-26T02:28:44.480Z,20.60
2022-08-26T02:31:11.483Z,20.74
2022-08-26T02:33:38.281Z,21.25
2022-08-26T02:36:10.597Z,21.47
2022-08-26T02:38:38.786Z,21.72
2022-08-26T02:41:06.578Z,21.69
2022-08-26T02:43:34.751Z,21.81
2022-08-26T02:46:02.290Z,21.93
2022-08-26T02:48:29.504Z,21.69
2022-08-26T02:50:56.180Z,21.44
2022-08-26T02:53:25.389Z,21.73
2022-08-26T02:55:52.662Z,21.95
2022-08-26T02:58:19.348Z,21.96
2022-08-26T03:00:53.356Z,21.94
2022-08-26T03:03:20.744Z,21.77
2022-08-26T03:05:50.318Z,21.36
2022-08-26T03:08:17.155Z,21.49
2022-08-26T03:10:44.376Z,21.23
2022-08-26T03:13:11.075Z,21.19
2022-08-26T03:15:37.684Z,20.89
2022-08-26T03:18:04.802Z,20.74
2022-08-26T03:20:32.074Z,20.77
2022-08-26T03:22:58.955Z,20.59
2022-08-26T03:25:26.578Z,20.39
2022-08-26T03:27:53.996Z,20.39
2022-08-26T03:30:39.905Z,20.62
2022-08-26T03:33:13.482Z,20.91
2022-08-26T03:35:43.478Z,21.05
2022-08-26T03:38:10.817Z,20.72
2022-08-26T03:40:37.884Z,20.68
2022-08-26T03:43:06.401Z,20.61
2022-08-26T03:45:36.492Z,20.58
2022-08-26T03:48:04.636Z,20.36
2022-08-26T03:50:34.380Z,20.00
2022-08-26T03:53:02.975Z,19.93
2022-08-26T03:55:32.005Z,19.91
2022-08-26T03:57:59.715Z,20.13
2022-08-26T04:00:26.917Z,20.32
2022-08-26T04:02:53.631Z,20.33
2022-08-26T04:05:22.041Z,20.19
2022-08-26T04:07:49.973Z,20.24
2022-08-26T04:10:20.249Z,20.31
2022-08-26T04:12:47.617Z,20.49
2022-08-26T04:15:16.119Z,20.41
2022-08-26T04:17:44.587Z,20.15
2022-08-26T04:20:13.940Z,20.12
2022-08-26T04:22:43.090Z,20.00
2022-08-26T04:25:10.947Z,20.01
2022-08-26T04:27:38.019Z,19.93
2022-08-26T04:30:07.967Z,19.77
2022-08-26T04:32:35.575Z,19.85
2022-08-26T04:35:03.506Z,19.97
2022-08-26T04:37:31.883Z,19.84
2022-08-26T04:39:59.430Z,19.91
2022-08-26T04:42:26.460Z,19.84
2022-08-26T04:44:53.086Z,19.84
2022-08-26T04:47:19.674Z,20.00
2022-08-26T04:49:46.250Z,19.63
2022-08-26T04:52:12.917Z,19.60
2022-08-26T04:54:39.508Z,19.76
2022-08-26T04:57:08.814Z,20.05
2022-08-26T04:59:39.053Z,20.00
2022-08-26T05:02:06.872Z,20.21
2022-08-26T05:04:34.520Z,20.24
2022-08-26T05:07:02.673Z,20.43
2022-08-26T05:09:29.793Z,20.19
2022-08-26T05:11:57.422Z,20.43
2022-08-26T05:14:24.066Z,20.44
2022-08-26T05:16:51.475Z,20.15
2022-08-26T05:19:18.858Z,20.17
2022-08-26T05:21:47.162Z,19.84
2022-08-26T05:24:14.330Z,19.50
2022-08-26T05:26:40.940Z,19.34
2022-08-26T05:29:07.913Z,19.41
2022-08-26T05:31:35.347Z,19.30
2022-08-26T05:34:04.436Z,19.30
2022-08-26T05:36:34.376Z,19.54
2022-08-26T05:39:03.691Z,19.95
2022-08-26T05:41:36.191Z,19.74
2022-08-26T05:44:05.916Z,20.02
2022-08-26T05:46:33.868Z,20.04
2022-08-26T05:49:01.300Z,19.92
2022-08-26T05:51:27.932Z,19.75
2022-08-26T05:53:57.115Z,19.67
2022-08-26T05:56:26.100Z,19.45
2022-08-26T05:58:53.698Z,19.78
2022-08-26T06:01:25.584Z,19.63
2022-08-26T06:03:54.743Z,19.75
2022-08-26T06:06:34.540Z,19.63
2022-08-26T06:09:04.038Z,19.83
2022-08-26T06:11:32.527Z,19.80
2022-08-26T06:14:04.297Z,19.63
2022-08-26T06:16:34.899Z,19.70
2022-08-26T06:19:03.799Z,19.95
2022-08-26T06:21:41.396Z,20.16
2022-08-26T06:24:29.811Z,20.22
2022-08-26T06:27:00.175Z,20.24
2022-08-26T06:29:29.462Z,20.31
2022-08-26T06:31:57.485Z,20.32
2022-08-26T06:34:29.816Z,20.30
2022-08-26T06:36:59.516Z,20.25
2022-08-26T06:39:26.160Z,20.26
2022-08-26T06:41:52.969Z,20.54
2022-08-26T06:44:20.234Z,20.71
2022-08-26T06:46:50.420Z,20.92
2022-08-26T06:49:18.086Z,20.84
2022-08-26T06:51:47.152Z,20.91
2022-08-26T06:54:15.583Z,21.08
2022-08-26T06:56:43.964Z,21.22
2022-08-26T06:59:12.206Z,21.10
2022-08-26T07:01:45.359Z,21.00
2022-08-26T07:04:15.657Z,21.05
2022-08-26T07:06:49.328Z,21.09
2022-08-26T07:09:16.924Z,21.17
2022-08-26T07:11:44.530Z,21.25
2022-08-26T07:14:11.459Z,21.24
2022-08-26T07:16:41.721Z,21.38
2022-08-26T07:19:10.911Z,21.53
2022-08-26T07:21:41.650Z,21.48
2022-08-26T07:24:11.073Z,21.54
2022-08-26T07:26:38.893Z,21.80
2022-08-26T07:29:12.322Z,21.80
2022-08-26T07:31:42.893Z,21.89
2022-08-26T07:34:11.705Z,22.09
2022-08-26T07:36:38.314Z,22.07
2022-08-26T07:39:05.670Z,22.18
2022-08-26T07:41:32.622Z,22.32
2022-08-26T07:43:59.345Z,22.46
2022-08-26T07:46:27.466Z,22.58
2022-08-26T07:48:57.409Z,22.76
2022-08-26T07:51:24.987Z,22.72
2022-08-26T07:53:52.531Z,22.81
2022-08-26T07:56:20.968Z,23.03
2022-08-26T07:58:51.517Z,23.12
2022-08-26T08:01:24.590Z,23.14
2022-08-26T08:03:53.751Z,23.19
2022-08-26T08:06:22.368Z,23.31
2022-08-26T08:08:50.729Z,23.36
2022-08-26T08:11:22.978Z,23.35
2022-08-26T08:13:56.138Z,23.47
2022-08-26T08:16:33.327Z,23.55
2022-08-26T08:19:01.082Z,23.88
2022-08-26T08:21:28.206Z,23.78
2022-08-26T08:23:56.958Z,23.83
2022-08-26T08:26:25.576Z,24.00
2022-08-26T08:28:57.586Z,24.25
2022-08-26T08:31:55.923Z,24.59
2022-08-26T08:34:18.461Z,24.59
2022-08-26T08:36:46.374Z,24.83
2022-08-26T08:39:13.842Z,24.96
2022-08-26T08:42:13.893Z,24.92
2022-08-26T08:44:44.255Z,25.08
2022-08-26T08:47:29.315Z,25.04
2022-08-26T08:50:03.389Z,25.10
2022-08-26T08:52:35.107Z,25.26
2022-08-26T08:55:02.411Z,25.38
2022-08-26T08:58:06.833Z,25.67
2022-08-26T09:00:46.466Z,25.81
2022-08-26T09:03:55.423Z,25.94
2022-08-26T09:06:22.112Z,26.28
2022-08-26T09:08:50.720Z,25.89
2022-08-26T09:11:19.700Z,25.98
2022-08-26T09:13:52.919Z,26.06
2022-08-26T09:16:32.951Z,25.99
2022-08-26T09:19:18.821Z,26.23
2022-08-26T09:21:46.406Z,26.19
2022-08-26T09:24:20.125Z,26.21
2022-08-26T09:26:49.781Z,26.40
2022-08-26T09:29:28.450Z,26.63
2022-08-26T09:32:16.360Z,26.56
2022-08-26T09:35:01.730Z,26.81
2022-08-26T09:37:38.756Z,26.72
2022-08-26T09:40:17.945Z,26.83
2022-08-26T09:42:45.107Z,26.66
2022-08-26T09:45:12.859Z,26.79
2022-08-26T09:47:52.769Z,26.60
2022-08-26T09:50:38.181Z,26.68
2022-08-26T09:53:28.693Z,26.88
2022-08-26T09:56:17.676Z,26.81
2022-08-26T09:58:47.288Z,26.80
2022-08-26T10:01:30.141Z,26.81
2022-08-26T10:04:10.241Z,27.24
2022-08-26T10:06:54.907Z,27.24
2022-08-26T10:09:23.780Z,27.41
2022-08-26T10:11:54.054Z,27.75
2022-08-26T10:14:39.828Z,27.71
2022-08-26T10:17:14.621Z,27.74
2022-08-26T10:19:57.181Z,27.69
2022-08-26T10:22:33.014Z,27.56
2022-08-26T10:25:03.299Z,27.77
2022-08-26T10:27:49.594Z,27.94
2022-08-26T10:30:23.646Z,27.80
2022-08-26T10:33:07.439Z,28.09
2022-08-26T10:35:37.612Z,28.15
2022-08-26T10:38:30.395Z,28.06
2022-08-26T10:41:10.455Z,28.07
2022-08-26T10:43:42.697Z,28.35
2022-08-26T10:46:16.328Z,28.27
2022-08-26T10:48:49.350Z,28.43
2022-08-26T10:51:28.853Z,28.52
2022-08-26T10:54:05.479Z,28.79
2022-08-26T10:56:52.892Z,28.55
2022-08-26T11:00:29.624Z,28.80
2022-08-26T11:03:27.470Z,28.92
2022-08-26T11:06:15.963Z,29.32
2022-08-26T11:08:48.299Z,28.98
2022-08-26T11:11:40.083Z,28.90
2022-08-26T11:14:29.321Z,29.13
2022-08-26T11:16:58.663Z,29.01
2022-08-26T11:19:59.445Z,29.42
2022-08-26T11:22:29.571Z,29.39
2022-08-26T11:24:56.445Z,29.64
2022-08-26T11:27:26.114Z,29.37
2022-08-26T11:29:57.366Z,29.24
2022-08-26T11:32:26.828Z,29.10
2022-08-26T11:34:59.151Z,29.27
2022-08-26T11:37:33.291Z,29.12
2022-08-26T11:40:01.606Z,29.24
2022-08-26T11:42:44.897Z,29.40
2022-08-26T11:45:25.203Z,29.89
2022-08-26T11:47:52.624Z,29.96
2022-08-26T11:50:26.082Z,29.89
2022-08-26T11:53:07.636Z,30.15
2022-08-26T11:55:41.776Z,29.69
2022-08-26T11:58:12.398Z,29.31
2022-08-26T12:00:52.258Z,29.23
2022-08-26T12:03:23.005Z,28.98
2022-08-26T12:05:53.576Z,28.85
2022-08-26T12:08:27.973Z,29.00
2022-08-26T12:11:06.892Z,28.66
2022-08-26T12:13:34.030Z,28.79
2022-08-26T12:16:01.509Z,29.20
2022-08-26T12:18:34.974Z,29.36
2022-08-26T12:21:12.623Z,29.60
2022-08-26T12:23:47.503Z,29.63
2022-08-26T12:26:29.583Z,29.53
2022-08-26T12:29:00.775Z,29.54
2022-08-26T12:31:37.536Z,29.21
2022-08-26T12:34:07.678Z,29.01
2022-08-26T12:36:47.490Z,28.95
2022-08-26T12:39:24.706Z,28.80
2022-08-26T12:41:57.439Z,28.78
2022-08-26T12:44:55.160Z,28.75
2022-08-26T12:47:43.973Z,28.92
2022-08-26T12:50:10.959Z,28.57
2022-08-26T12:52:59.241Z,28.77
2022-08-26T12:55:31.697Z,29.01
2022-08-26T12:58:22.958Z,28.74
2022-08-26T13:00:55.560Z,28.69
2022-08-26T13:03:38.616Z,28.40
2022-08-26T13:06:15.508Z,28.36
2022-08-26T13:09:08.859Z,28.50
2022-08-26T13:11:55.277Z,28.67
2022-08-26T13:14:24.486Z,28.55
2022-08-26T13:16:52.306Z,28.55
2022-08-26T13:19:25.776Z,28.93
2022-08-26T13:21:55.273Z,28.45
2022-08-26T13:24:38.071Z,28.62
2022-08-26T13:27:06.416Z,28.30
2022-08-26T13:29:33.056Z,28.80
2022-08-26T13:32:00.598Z,28.75
2022-08-26T13:34:27.945Z,28.87
2022-08-26T13:36:56.291Z,28.47
2022-08-26T13:39:24.063Z,28.87
2022-08-26T13:41:51.482Z,28.66
2022-08-26T13:44:18.464Z,28.51
2022-08-26T13:49:17.014Z,28.35
2022-08-26T13:51:43.637Z,28.50
2022-08-26T13:54:10.335Z,28.70
2022-08-26T13:56:37.482Z,28.55
2022-08-26T13:59:05.560Z,28.30
2022-08-26T14:01:35.075Z,28.41
2022-08-26T14:04:02.893Z,28.41
2022-08-26T14:06:30.042Z,28.07
2022-08-26T14:08:57.100Z,28.38
2022-08-26T14:11:24.851Z,28.33
2022-08-26T14:13:52.415Z,28.50
2022-08-26T14:16:29.262Z,28.59
2022-08-26T14:18:56.111Z,28.57
2022-08-26T14:21:23.916Z,28.71
2022-08-26T14:23:50.529Z,28.45
2022-08-26T14:26:28.769Z,28.34
2022-08-26T14:28:58.914Z,28.60
2022-08-26T14:31:27.168Z,28.79
2022-08-26T14:33:56.621Z,28.89
2022-08-26T14:36:29.365Z,28.71
2022-08-26T14:38:58.274Z,28.66
2022-08-26T14:41:25.411Z,28.46
2022-08-26T14:44:05.685Z,28.51
2022-08-26T14:46:37.601Z,28.61
2022-08-26T14:49:07.295Z,28.56
2022-08-26T14:51:36.596Z,28.51
2022-08-26T14:54:12.318Z,28.49
2022-08-26T14:56:48.765Z,28.27
2022-08-26T14:59:27.549Z,28.07
2022-08-26T15:01:55.291Z,28.38
2022-08-26T15:04:23.006Z,28.39
2022-08-26T15:06:50.794Z,28.49
2022-08-26T15:09:17.397Z,28.44
2022-08-26T15:11:44.498Z,28.34
2022-08-26T15:14:19.021Z,28.47
2022-08-26T15:16:47.889Z,28.44
2022-08-26T15:19:15.375Z,28.50
2022-08-26T15:21:43.307Z,28.47
2022-08-26T15:24:09.902Z,28.57
2022-08-26T15:26:36.721Z,28.72
2022-08-26T15:29:05.230Z,28.57
2022-08-26T15:31:33.600Z,28.38
2022-08-26T15:34:05.028Z,27.91
2022-08-26T15:36:33.011Z,27.97
2022-08-26T15:39:00.887Z,27.99
2022-08-26T15:41:28.184Z,28.38
2022-08-26T15:43:54.756Z,28.31
2022-08-26T15:46:21.409Z,28.14
2022-08-26T15:48:48.186Z,28.18
2022-08-26T15:51:23.830Z,28.04
2022-08-26T15:53:51.179Z,27.94
2022-08-26T15:56:18.327Z,28.00
2022-08-26T15:58:45.388Z,28.11
2022-08-26T16:01:12.485Z,28.07
2022-08-26T16:03:39.127Z,28.18
2022-08-26T16:06:06.871Z,27.86
2022-08-26T16:08:36.424Z,27.49
2022-08-26T16:11:04.118Z,27.61
2022-08-26T16:13:33.882Z,27.53
2022-08-26T16:16:07.919Z,27.13
2022-08-26T16:18:34.563Z,27.03
2022-08-26T16:21:13.750Z,27.19
2022-08-26T16:23:40.858Z,27.09
2022-08-26T16:26:15.873Z,27.29
2022-08-26T16:28:43.614Z,26.80
2022-08-26T16:31:10.750Z,26.67
2022-08-26T16:33:37.896Z,26.53
2022-08-26T16:36:05.658Z,26.86
2022-08-26T16:38:32.576Z,27.10
2022-08-26T16:41:00.601Z,26.65
2022-08-26T16:43:27.748Z,26.40
2022-08-26T16:45:54.467Z,26.58
2022-08-26T16:48:21.220Z,26.79
2022-08-26T16:50:47.960Z,26.57
2022-08-26T16:55:47.842Z,26.74
2022-08-26T16:58:15.013Z,26.43
2022-08-26T17:00:42.434Z,26.10
2022-08-26T17:03:10.013Z,26.40
2022-08-26T17:05:37.271Z,25.97
2022-08-26T17:08:04.643Z,26.13
2022-08-26T17:10:31.858Z,25.84
2022-08-26T17:12:58.651Z,26.21
2022-08-26T17:15:25.768Z,26.21
2022-08-26T17:17:53.176Z,25.94
2022-08-26T17:20:21.347Z,25.61
2022-08-26T17:22:50.748Z,25.93
2022-08-26T17:25:26.845Z,25.58
2022-08-26T17:27:53.644Z,25.77
2022-08-26T17:30:21.134Z,26.06
2022-08-26T17:32:48.441Z,25.76
2022-08-26T17:35:15.616Z,25.86
2022-08-26T17:37:43.499Z,25.96
2022-08-26T17:40:15.282Z,26.02
2022-08-26T17:42:42.418Z,26.17
2022-08-26T17:45:09.969Z,26.15
2022-08-26T17:47:37.432Z,26.24
2022-08-26T17:50:06.635Z,26.25
2022-08-26T17:52:33.307Z,25.82
2022-08-26T17:54:59.891Z,25.89
2022-08-26T17:57:27.094Z,25.67
2022-08-26T17:59:54.283Z,25.80
2022-08-26T18:02:21.410Z,25.51
2022-08-26T18:04:48.278Z,25.96
2022-08-26T18:07:15.511Z,25.63
2022-08-26T18:09:42.467Z,25.87
2022-08-26T18:12:09.241Z,25.75
2022-08-26T18:14:36.082Z,25.57
2022-08-26T18:17:03.054Z,25.34
2022-08-26T18:19:29.885Z,25.64
2022-08-26T18:21:56.942Z,25.80
2022-08-26T18:24:24.457Z,25.82
2022-08-26T18:26:51.080Z,25.78
2022-08-26T18:29:19.434Z,25.80
2022-08-26T18:31:46.475Z,25.70
2022-08-26T18:34:15.374Z,25.30
2022-08-26T18:36:42.689Z,25.57
2022-08-26T18:39:10.900Z,25.60
2022-08-26T18:41:46.700Z,25.45
2022-08-26T18:44:15.271Z,25.35
2022-08-26T18:46:42.996Z,25.56
2022-08-26T18:49:12.316Z,25.47
2022-08-26T18:51:39.151Z,25.37
2022-08-26T18:54:07.511Z,25.16
2022-08-26T18:56:36.282Z,25.30
2022-08-26T18:59:04.746Z,25.34
2022-08-26T19:01:32.664Z,25.08
2022-08-26T19:04:01.553Z,24.94
2022-08-26T19:06:31.522Z,25.20
2022-08-26T19:08:58.748Z,25.20
2022-08-26T19:11:32.231Z,25.02
2022-08-26T19:14:01.305Z,24.97
2022-08-26T19:16:29.206Z,25.01
2022-08-26T19:18:56.234Z,24.91
2022-08-26T19:21:23.203Z,25.12
2022-08-26T19:23:50.843Z,25.04
2022-08-26T19:26:19.295Z,24.80
2022-08-26T19:28:46.097Z,25.05
2022-08-26T19:31:12.757Z,24.79
2022-08-26T19:33:42.084Z,25.36
2022-08-26T19:36:15.021Z,25.16
2022-08-26T19:38:42.765Z,24.83
2022-08-26T19:41:14.867Z,25.32
2022-08-26T19:43:41.886Z,25.39
2022-08-26T19:46:13.801Z,25.17
2022-08-26T19:48:43.889Z,25.14
2022-08-26T19:51:21.994Z,24.49
2022-08-26T19:53:49.008Z,24.55
2022-08-26T19:56:16.419Z,24.31
2022-08-26T19:58:43.495Z,24.50
2022-08-26T20:01:10.621Z,24.80
2022-08-26T20:03:37.480Z,24.20
2022-08-26T20:06:06.279Z,24.76
2022-08-26T20:08:33.863Z,24.80
2022-08-26T20:11:02.652Z,24.69
2022-08-26T20:13:29.225Z,24.48
2022-08-26T20:15:55.846Z,24.53
2022-08-26T20:18:41.090Z,24.68
2022-08-26T20:21:26.415Z,24.66
2022-08-26T20:23:54.883Z,24.56
2022-08-26T20:26:21.736Z,24.31
2022-08-26T20:28:51.069Z,24.51
2022-08-26T20:31:19.212Z,24.25
2022-08-26T20:33:46.892Z,24.14
2022-08-26T20:36:14.927Z,24.71
2022-08-26T20:38:41.838Z,24.43
2022-08-26T20:41:08.535Z,24.61
2022-08-26T20:43:35.201Z,24.77
2022-08-26T20:46:01.900Z,24.45
2022-08-26T20:48:28.565Z,24.14
2022-08-26T20:50:59.895Z,24.66
2022-08-26T20:53:28.570Z,24.54
2022-08-26T20:55:59.722Z,24.75
2022-08-26T20:58:26.504Z,24.65
2022-08-26T21:00:53.179Z,24.05
2022-08-26T21:03:19.854Z,24.05
2022-08-26T21:05:46.469Z,23.83
2022-08-26T21:08:13.196Z,24.03
2022-08-26T21:10:40.383Z,23.93
2022-08-26T21:13:07.730Z,23.92
2022-08-26T21:15:35.179Z,23.85
2022-08-26T21:18:03.203Z,23.72
2022-08-26T21:20:30.669Z,23.74
2022-08-26T21:22:57.283Z,24.33
2022-08-26T21:25:24.078Z,23.88
2022-08-26T21:27:50.714Z,23.87
2022-08-26T21:30:17.350Z,23.81
2022-08-26T21:32:44.000Z,23.76
2022-08-26T21:35:10.622Z,23.65
2022-08-26T21:37:37.220Z,23.64
2022-08-26T21:40:05.617Z,24.39
2022-08-26T21:42:34.471Z,24.36
2022-08-26T21:45:02.866Z,24.41
2022-08-26T21:47:30.251Z,23.65
2022-08-26T21:49:56.928Z,23.54
2022-08-26T21:52:24.721Z,23.83
2022-08-26T21:54:51.363Z,23.59
2022-08-26T21:57:19.053Z,23.82
2022-08-26T21:59:45.668Z,23.58
2022-08-26T22:02:13.354Z,23.51
2022-08-26T22:04:43.652Z,23.50
2022-08-26T22:07:13.583Z,23.47
2022-08-26T22:09:41.281Z,23.53
2022-08-26T22:12:12.153Z,23.86
2022-08-26T22:14:39.718Z,24.05
2022-08-26T22:17:06.485Z,24.33
2022-08-26T22:19:34.045Z,24.35
2022-08-26T22:22:03.655Z,24.28
2022-08-26T22:24:30.277Z,23.97
2022-08-26T22:26:57.028Z,23.76
2022-08-26T22:29:24.998Z,23.80
2022-08-26T22:31:51.863Z,23.76
2022-08-26T22:34:20.290Z,23.51
2022-08-26T22:36:49.115Z,23.44
2022-08-26T22:39:18.956Z,23.34
2022-08-26T22:41:48.463Z,23.26
2022-08-26T22:44:15.867Z,23.48
2022-08-26T22:46:43.821Z,23.66
2022-08-26T22:49:12.577Z,23.62
2022-08-26T22:51:39.240Z,23.71
2022-08-26T22:54:05.947Z,23.60
2022-08-26T22:56:32.565Z,23.22
2022-08-26T22:58:59.160Z,23.61
2022-08-26T23:01:25.945Z,23.72
2022-08-26T23:03:53.081Z,23.96
2022-08-26T23:06:19.693Z,24.04
2022-08-26T23:08:47.029Z,24.05
2022-08-26T23:11:14.973Z,24.05
2022-08-26T23:13:42.475Z,24.04
2022-08-26T23:16:11.468Z,24.06
2022-08-26T23:18:38.669Z,24.04
2022-08-26T23:21:06.002Z,24.09
2022-08-26T23:23:33.074Z,23.84
2022-08-26T23:26:02.346Z,23.94
2022-08-26T23:28:32.256Z,24.01
2022-08-26T23:30:58.899Z,24.00
2022-08-26T23:33:45.504Z,23.77
2022-08-26T23:36:17.046Z,23.72
2022-08-26T23:38:44.498Z,23.60
2022-08-26T23:41:14.214Z,23.37
2022-08-26T23:43:45.020Z,23.35
2022-08-26T23:46:11.820Z,23.09
2022-08-26T23:48:38.605Z,23.03
2022-08-26T23:51:23.803Z,23.24
2022-08-26T23:53:50.835Z,22.94
2022-08-26T23:56:17.994Z,23.02
2022-08-26T23:58:45.001Z,23.29
